Time;durP1;ratioP1;P1;durP2;ratioP2;P2;SDS_P1;SDS_P2;PMS_P1;PMS_P2;Temp;Humidity;BMP_temperature;BMP_pressure;BME280_temperature;BME280_humidity;BME280_pressure;Samples;Min_cycle;Max_cycle;Signal;HPM_P1;HPM_P2
2023/06/18 00:02:01;;;;;;;11.40;10.20;;;;;;;20.85;38.47;96072.00;4975329;28;21168;-69
2023/06/18 00:04:27;;;;;;;12.70;10.53;;;;;;;20.70;38.80;96071.56;4977739;28;20189;-70
2023/06/18 00:06:53;;;;;;;27.70;12.20;;;;;;;20.83;38.37;96067.78;4985813;28;20181;-70
2023/06/18 00:09:19;;;;;;;10.10;9.17;;;;;;;20.79;38.21;96074.38;4983859;28;20177;-70
2023/06/18 00:11:44;;;;;;;14.63;10.50;;;;;;;21.00;38.26;96071.59;4976851;28;20960;-69
2023/06/18 00:14:10;;;;;;;12.70;9.50;;;;;;;20.96;38.09;96072.88;4986891;28;20839;-70
2023/06/18 00:16:35;;;;;;;11.77;9.00;;;;;;;20.84;38.33;96067.66;4986249;28;20185;-69
2023/06/18 00:19:01;;;;;;;11.27;9.30;;;;;;;20.65;38.34;96062.31;4985401;28;20246;-69
2023/06/18 00:21:26;;;;;;;11.77;9.10;;;;;;;20.48;38.97;96071.75;4981766;28;20221;-71
2023/06/18 00:23:52;;;;;;;10.37;9.37;;;;;;;20.51;39.04;96067.00;4975589;28;20193;-68
2023/06/18 00:26:17;;;;;;;10.60;9.23;;;;;;;20.59;38.85;96062.84;4979517;28;20180;-69
2023/06/18 00:28:42;;;;;;;18.67;9.93;;;;;;;20.51;39.13;96075.00;4985882;28;20275;-69
2023/06/18 00:31:11;;;;;;;18.00;10.40;;;;;;;20.50;39.06;96075.13;4981492;28;20219;-69
2023/06/18 00:33:37;;;;;;;17.80;9.93;;;;;;;20.34;39.26;96069.47;4980849;28;20176;-71
2023/06/18 00:36:04;;;;;;;12.33;10.77;;;;;;;20.28;39.37;96066.38;4982864;28;20512;-70
2023/06/18 00:38:32;;;;;;;14.60;10.13;;;;;;;20.26;39.65;96067.50;4986710;28;20542;-66
2023/06/18 00:40:59;;;;;;;10.83;9.53;;;;;;;20.13;39.83;96069.56;4984526;28;20472;-69
2023/06/18 00:43:27;;;;;;;11.27;10.07;;;;;;;20.22;39.68;96056.28;4981048;28;20756;-68
2023/06/18 00:45:59;;;;;;;12.03;10.80;;;;;;;20.33;39.56;96060.66;4979881;28;21291;-69
2023/06/18 00:48:25;;;;;;;14.13;10.70;;;;;;;20.25;39.65;96063.16;4974078;28;20442;-69
2023/06/18 00:50:54;;;;;;;11.13;10.03;;;;;;;20.18;39.81;96056.69;4984609;28;20447;-68
2023/06/18 00:53:20;;;;;;;10.90;9.97;;;;;;;20.11;39.92;96058.19;4981483;28;20438;-69
2023/06/18 00:55:47;;;;;;;11.77;9.93;;;;;;;20.13;40.20;96059.75;4981901;28;20455;-69
2023/06/18 00:58:13;;;;;;;13.73;9.60;;;;;;;20.19;40.06;96058.34;4977389;28;20440;-70
2023/06/18 01:00:40;;;;;;;12.00;10.90;;;;;;;20.17;39.95;96052.31;4985643;28;20521;-67
2023/06/18 01:03:17;;;;;;;19.30;11.43;;;;;;;20.14;39.68;96055.25;4984027;28;20200;-70
2023/06/18 01:05:49;;;;;;;11.87;10.60;;;;;;;20.16;39.34;96053.31;4982359;28;20523;-70
2023/06/18 01:08:15;;;;;;;17.43;10.87;;;;;;;19.83;40.02;96055.28;4974985;28;20484;-69
2023/06/18 01:10:41;;;;;;;14.53;10.33;;;;;;;19.34;41.35;96052.28;4980688;28;20996;-69
2023/06/18 01:13:30;;;;;;;12.50;11.30;;;;;;;19.29;41.51;96053.66;4984349;28;20173;-72
2023/06/18 01:16:03;;;;;;;15.67;10.67;;;;;;;19.03;42.07;96051.34;4990573;28;20526;-70
2023/06/18 01:18:35;;;;;;;22.87;12.33;;;;;;;18.98;42.37;96051.75;4981483;28;20428;-71
2023/06/18 01:21:05;;;;;;;24.83;12.23;;;;;;;18.86;42.67;96041.28;4981436;28;20867;-69
2023/06/18 01:23:57;;;;;;;12.73;11.47;;;;;;;18.93;42.70;96048.63;4981340;28;20428;-70
2023/06/18 01:26:26;;;;;;;15.47;10.83;;;;;;;18.76;42.75;96044.72;4981111;28;20428;-71
2023/06/18 01:28:52;;;;;;;13.80;10.30;;;;;;;18.76;42.87;96044.72;4981052;28;20428;-71
2023/06/18 01:31:21;;;;;;;17.70;11.57;;;;;;;18.75;43.12;96042.97;4981254;28;20611;-70
2023/06/18 01:33:51;;;;;;;11.30;10.07;;;;;;;18.83;42.90;96042.41;4980570;28;20308;-71
2023/06/18 01:36:24;;;;;;;11.47;10.33;;;;;;;18.68;42.97;96035.63;4981121;28;20906;-71
2023/06/18 01:38:54;;;;;;;17.10;11.00;;;;;;;18.67;43.35;96042.78;4981151;28;20447;-69
2023/06/18 01:41:26;;;;;;;14.67;9.83;;;;;;;18.70;43.06;96044.34;4980784;28;20450;-70
2023/06/18 01:43:57;;;;;;;23.93;10.80;;;;;;;18.76;42.95;96033.22;4964828;28;20416;-71
2023/06/18 01:46:27;;;;;;;18.97;11.87;;;;;;;18.70;42.98;96039.84;4980681;28;20532;-71
2023/06/18 01:49:20;;;;;;;13.63;11.37;;;;;;;18.56;43.55;96048.13;4980726;28;20408;-71
2023/06/18 01:51:48;;;;;;;11.60;10.40;;;;;;;18.53;43.83;96041.25;4977033;28;20447;-70
2023/06/18 01:54:14;;;;;;;12.47;10.50;;;;;;;18.51;43.65;96039.69;5013753;28;20434;-69
2023/06/18 01:56:40;;;;;;;11.90;10.57;;;;;;;18.48;44.14;96046.09;4983879;28;20435;-70
2023/06/18 01:59:06;;;;;;;11.23;10.13;;;;;;;18.51;43.89;96039.69;4983609;28;20427;-69
2023/06/18 02:01:34;;;;;;;11.90;10.70;;;;;;;18.47;43.91;96032.91;4983421;28;20468;-71
2023/06/18 02:04:00;;;;;;;11.03;10.00;;;;;;;18.31;44.67;96042.16;4982869;28;20185;-71
2023/06/18 02:06:25;;;;;;;26.40;10.63;;;;;;;18.19;45.13;96045.78;4983484;28;20412;-70
2023/06/18 02:08:51;;;;;;;24.13;12.00;;;;;;;18.11;45.41;96042.88;4983860;28;20520;-71
2023/06/18 02:11:16;;;;;;;13.93;10.77;;;;;;;17.97;45.95;96050.13;4982809;28;20235;-71
2023/06/18 02:13:41;;;;;;;17.23;10.93;;;;;;;18.02;45.94;96048.94;4983235;28;20231;-70
2023/06/18 02:16:07;;;;;;;13.50;10.50;;;;;;;18.05;45.31;96057.50;4982796;28;20264;-68
2023/06/18 02:18:32;;;;;;;14.63;10.90;;;;;;;18.02;45.94;96054.25;4983486;28;20173;-70
2023/06/18 02:20:58;;;;;;;14.33;10.70;;;;;;;18.13;45.52;96055.06;4983174;28;20192;-69
2023/06/18 02:23:25;;;;;;;17.07;11.13;;;;;;;18.03;45.28;96051.47;4983267;28;20331;-70
2023/06/18 02:25:51;;;;;;;11.20;10.10;;;;;;;18.02;45.27;96055.06;4983334;28;21023;-69
2023/06/18 02:28:16;;;;;;;15.10;10.50;;;;;;;18.00;46.04;96059.69;4991935;28;20431;-71
2023/06/18 02:30:41;;;;;;;12.80;10.03;;;;;;;18.01;45.85;96052.56;4983562;28;20559;-71
2023/06/18 02:33:07;;;;;;;10.73;9.60;;;;;;;17.87;46.38;96057.13;4982425;28;20177;-70
2023/06/18 02:35:32;;;;;;;11.70;10.37;;;;;;;17.87;46.46;96064.25;4983195;28;20180;-69
2023/06/18 02:37:58;;;;;;;20.00;11.57;;;;;;;17.76;46.24;96060.63;4983518;28;20259;-70
2023/06/18 02:40:24;;;;;;;23.30;11.33;;;;;;;17.68;46.62;96062.16;4983570;28;20208;-70
2023/06/18 02:42:50;;;;;;;24.63;12.50;;;;;;;17.54;46.83;96048.16;4983748;28;20283;-70
2023/06/18 02:45:18;;;;;;;21.20;10.73;;;;;;;17.78;45.46;96049.88;4983296;28;20206;-69
2023/06/18 02:47:48;;;;;;;18.37;10.60;;;;;;;18.02;44.45;96051.56;4983335;28;20917;-70
2023/06/18 02:50:14;;;;;;;64.73;15.30;;;;;;;17.93;45.13;96048.69;4983300;28;20459;-69
2023/06/18 02:52:40;;;;;;;21.67;11.40;;;;;;;18.03;44.72;96045.31;4983109;28;20439;-69
2023/06/18 02:55:07;;;;;;;25.17;12.17;;;;;;;17.86;45.08;96052.81;4982538;28;20420;-69
2023/06/18 02:57:33;;;;;;;11.50;10.40;;;;;;;17.85;44.93;96052.91;4983309;28;20444;-70
2023/06/18 02:59:58;;;;;;;26.23;11.37;;;;;;;17.73;45.17;96055.53;4986137;28;20420;-69
2023/06/18 03:02:25;;;;;;;12.97;10.13;;;;;;;17.79;45.01;96059.53;4986523;28;20463;-71
2023/06/18 03:04:50;;;;;;;13.83;10.60;;;;;;;17.81;44.91;96062.06;4986948;28;20200;-70
2023/06/18 03:07:16;;;;;;;23.07;10.70;;;;;;;17.74;45.28;96059.03;4989814;28;20412;-69
2023/06/18 03:09:41;;;;;;;26.13;13.20;;;;;;;17.71;45.15;96067.22;4989460;28;20176;-71
2023/06/18 03:12:07;;;;;;;12.37;11.10;;;;;;;17.59;45.62;96057.56;4989639;28;20251;-68
2023/06/18 03:14:33;;;;;;;15.17;11.40;;;;;;;17.63;45.31;96059.03;4989346;28;20181;-71
2023/06/18 03:16:58;;;;;;;15.70;10.37;;;;;;;17.69;45.22;96063.84;4989773;28;20192;-70
2023/06/18 03:19:23;;;;;;;15.40;10.70;;;;;;;17.63;45.19;96054.56;4989089;28;20177;-69
2023/06/18 03:21:49;;;;;;;14.97;11.03;;;;;;;17.60;45.15;96057.47;4989068;28;20224;-70
2023/06/18 03:24:14;;;;;;;17.47;11.90;;;;;;;17.81;44.40;96052.31;4989461;28;20173;-69
2023/06/18 03:26:41;;;;;;;17.33;10.17;;;;;;;17.56;44.85;96054.19;4989350;28;20242;-69
2023/06/18 03:29:07;;;;;;;12.90;10.53;;;;;;;17.39;45.52;96053.81;4989297;28;20177;-70
2023/06/18 03:31:33;;;;;;;23.97;11.33;;;;;;;17.43;45.62;96056.09;4988489;28;20460;-70
2023/06/18 03:34:02;;;;;;;12.73;10.77;;;;;;;17.43;45.38;96057.91;4980295;28;20439;-69
2023/06/18 03:36:34;;;;;;;17.50;10.47;;;;;;;17.40;45.29;96058.16;4979147;28;20181;-71
2023/06/18 03:38:59;;;;;;;15.50;10.90;;;;;;;17.41;45.23;96055.38;4989195;28;20439;-68
2023/06/18 03:41:25;;;;;;;20.80;11.40;;;;;;;17.42;45.09;96046.44;4990698;28;20964;-69
2023/06/18 03:43:51;;;;;;;52.10;13.30;;;;;;;17.45;45.47;96042.72;4989339;28;21177;-71
2023/06/18 03:46:16;;;;;;;41.43;13.00;;;;;;;17.56;45.31;96053.34;4990491;28;20511;-68
2023/06/18 03:48:43;;;;;;;17.30;11.57;;;;;;;17.65;45.16;96050.00;4989948;28;20221;-72
2023/06/18 03:51:08;;;;;;;39.07;13.60;;;;;;;17.62;45.07;96054.66;4989581;28;20260;-68
2023/06/18 03:53:36;;;;;;;35.13;11.83;;;;;;;17.70;44.88;96058.44;4989588;28;20807;-68
2023/06/18 03:56:04;;;;;;;27.63;11.70;;;;;;;17.68;44.83;96060.34;4989677;28;20185;-70
2023/06/18 03:58:30;;;;;;;43.50;15.43;;;;;;;17.66;45.00;96059.63;4991024;28;20432;-68
2023/06/18 04:00:55;;;;;;;28.73;12.87;;;;;;;17.70;44.67;96060.25;4989890;28;20543;-68
2023/06/18 04:03:22;;;;;;;16.80;10.60;;;;;;;17.70;44.78;96062.91;4988786;28;20579;-71
2023/06/18 04:05:48;;;;;;;43.60;14.10;;;;;;;17.75;44.89;96063.38;4986825;28;20279;-70
2023/06/18 04:08:13;;;;;;;26.03;11.70;;;;;;;17.73;44.57;96057.34;4988655;28;20470;-68
2023/06/18 04:10:40;;;;;;;31.73;11.83;;;;;;;18.07;43.85;96054.72;4988601;28;20203;-68
2023/06/18 04:13:06;;;;;;;11.03;9.90;;;;;;;18.04;43.88;96058.47;4988591;28;20180;-68
2023/06/18 04:15:31;;;;;;;22.73;10.40;;;;;;;17.98;44.16;96058.97;4988168;28;20416;-69
2023/06/18 04:17:57;;;;;;;28.00;12.87;;;;;;;18.15;44.16;96060.28;4987607;28;20260;-69
2023/06/18 04:20:22;;;;;;;18.20;10.73;;;;;;;18.14;44.01;96053.25;4988355;28;20276;-70
2023/06/18 04:22:48;;;;;;;17.83;10.70;;;;;;;18.10;43.92;96057.16;4989035;28;20204;-70
2023/06/18 04:25:13;;;;;;;26.43;10.10;;;;;;;18.11;43.73;96059.66;4988320;28;20212;-69
2023/06/18 04:27:39;;;;;;;18.10;10.37;;;;;;;18.20;43.33;96068.72;4990298;28;20169;-70
2023/06/18 04:30:06;;;;;;;20.43;10.50;;;;;;;18.28;43.61;96068.09;4989217;28;20231;-70
2023/06/18 04:32:31;;;;;;;11.47;10.37;;;;;;;18.32;43.18;96070.38;4988558;28;20472;-69
2023/06/18 04:34:57;;;;;;;15.23;10.30;;;;;;;18.44;42.83;96068.56;4988386;28;20587;-70
2023/06/18 04:37:22;;;;;;;28.50;11.30;;;;;;;18.53;42.45;96065.16;4988618;28;20184;-70
2023/06/18 04:39:48;;;;;;;45.23;14.00;;;;;;;18.76;42.14;96067.75;4988332;28;20173;-70
2023/06/18 04:42:13;;;;;;;63.70;15.43;;;;;;;18.75;41.92;96069.56;4988168;28;20212;-71
2023/06/18 04:44:39;;;;;;;24.13;11.77;;;;;;;18.92;41.62;96064.69;4987451;28;20177;-69
2023/06/18 04:47:04;;;;;;;34.13;13.97;;;;;;;18.98;41.45;96067.69;4987952;28;20213;-70
2023/06/18 04:49:30;;;;;;;14.50;10.63;;;;;;;19.72;41.19;96071.31;4987465;28;20923;-68
2023/06/18 04:51:55;;;;;;;19.47;10.07;;;;;;;20.16;40.08;96063.97;4987386;28;20201;-71
2023/06/18 04:54:21;;;;;;;10.83;9.10;;;;;;;20.43;39.14;96064.19;4985786;28;20283;-70
2023/06/18 04:56:46;;;;;;;21.53;10.60;;;;;;;20.70;38.00;96060.06;4987599;28;20173;-70
2023/06/18 04:59:12;;;;;;;22.20;10.97;;;;;;;20.74;37.69;96058.81;4987166;28;20180;-71
2023/06/18 05:01:37;;;;;;;15.77;9.50;;;;;;;20.74;37.62;96064.16;4987412;28;20212;-70
2023/06/18 05:04:02;;;;;;;12.43;8.43;;;;;;;20.99;37.79;96062.75;4986969;28;20179;-70
2023/06/18 05:06:28;;;;;;;14.33;11.33;;;;;;;21.43;37.02;96049.00;4987283;28;20717;-69
2023/06/18 05:08:53;;;;;;;26.37;11.77;;;;;;;21.27;36.90;96050.38;4987086;28;20265;-70
2023/06/18 05:11:19;;;;;;;16.73;10.90;;;;;;;21.42;36.85;96057.97;4986978;28;20196;-69
2023/06/18 05:13:44;;;;;;;19.03;10.93;;;;;;;21.26;37.00;96054.06;4986744;28;20263;-70
2023/06/18 05:16:09;;;;;;;19.10;11.40;;;;;;;21.07;37.22;96056.69;4987078;28;20173;-70
2023/06/18 05:18:37;;;;;;;32.10;12.10;;;;;;;21.37;36.81;96053.03;4986883;28;20259;-69
2023/06/18 05:21:02;;;;;;;31.67;12.60;;;;;;;21.48;36.26;96055.59;4985412;28;20303;-70
2023/06/18 05:23:27;;;;;;;22.93;10.83;;;;;;;21.38;36.59;96060.09;4986942;28;20550;-70
2023/06/18 05:25:53;;;;;;;25.00;10.37;;;;;;;21.34;36.37;96051.50;4986839;28;20235;-70
2023/06/18 05:28:19;;;;;;;14.20;10.10;;;;;;;21.62;36.67;96056.13;4986944;28;20177;-70
2023/06/18 05:30:46;;;;;;;10.47;9.50;;;;;;;21.54;36.37;96054.16;4987046;28;20204;-70
2023/06/18 05:33:12;;;;;;;15.97;9.93;;;;;;;21.74;35.74;96053.16;4986844;28;20412;-70
2023/06/18 05:35:38;;;;;;;15.73;11.20;;;;;;;21.65;35.72;96048.66;4986826;28;20431;-69
2023/06/18 05:38:03;;;;;;;41.97;13.83;;;;;;;21.56;35.85;96052.19;4986969;28;20181;-70
2023/06/18 05:40:28;;;;;;;12.00;10.47;;;;;;;20.85;36.78;96058.66;4986792;28;20260;-70
2023/06/18 05:42:54;;;;;;;40.70;11.80;;;;;;;21.13;36.99;96051.66;4983909;28;20209;-70
2023/06/18 05:45:19;;;;;;;28.83;11.97;;;;;;;21.21;36.64;96058.09;4986363;28;20172;-70
2023/06/18 05:47:45;;;;;;;33.00;13.43;;;;;;;21.27;36.76;96063.72;4986861;28;20185;-69
2023/06/18 05:50:10;;;;;;;55.53;15.60;;;;;;;21.67;36.17;96062.72;4986745;28;20188;-68
2023/06/18 05:52:36;;;;;;;29.10;10.90;;;;;;;21.99;35.68;96056.16;4986535;28;20192;-69
2023/06/18 05:55:01;;;;;;;44.30;13.17;;;;;;;22.04;35.34;96064.59;4986765;28;20191;-71
2023/06/18 05:57:27;;;;;;;14.93;9.70;;;;;;;22.18;34.82;96058.75;4986588;28;20537;-71
2023/06/18 05:59:52;;;;;;;10.80;9.70;;;;;;;22.49;34.28;96058.50;4986617;28;20260;-71
2023/06/18 06:02:18;;;;;;;36.63;11.90;;;;;;;22.64;34.14;96056.16;4986820;28;20209;-69
2023/06/18 06:04:43;;;;;;;13.60;9.90;;;;;;;22.35;33.97;96070.53;4986724;28;20231;-69
2023/06/18 06:07:09;;;;;;;15.43;11.10;;;;;;;21.25;36.16;96065.69;4986680;28;20180;-70
2023/06/18 06:09:35;;;;;;;20.90;11.33;;;;;;;21.64;36.07;96068.34;4986767;28;20191;-69
2023/06/18 06:12:01;;;;;;;10.33;9.30;;;;;;;20.82;37.17;96064.28;4986579;28;21170;-68
2023/06/18 06:14:26;;;;;;;13.27;10.57;;;;;;;20.59;37.37;96062.84;4986431;28;20183;-70
2023/06/18 06:16:57;;;;;;;11.37;10.23;;;;;;;20.75;37.61;96063.16;4986472;28;20428;-69
2023/06/18 06:19:22;;;;;;;13.43;9.47;;;;;;;21.35;36.66;96060.34;4986695;28;20909;-68
2023/06/18 06:21:48;;;;;;;13.40;8.90;;;;;;;21.93;35.83;96060.25;4981904;28;20495;-70
2023/06/18 06:24:15;;;;;;;11.50;10.50;;;;;;;21.94;35.02;96063.75;4984126;28;20289;-69
2023/06/18 06:26:41;;;;;;;16.30;12.00;;;;;;;21.51;36.29;96065.97;4986024;28;20574;-69
2023/06/18 06:29:06;;;;;;;12.33;10.37;;;;;;;21.35;37.09;96063.00;4986170;28;20423;-70
2023/06/18 06:31:32;;;;;;;12.50;11.27;;;;;;;21.03;37.94;96061.50;4985969;28;20259;-70
2023/06/18 06:33:57;;;;;;;14.30;9.60;;;;;;;21.96;36.66;96064.47;4985389;28;20180;-67
2023/06/18 06:36:24;;;;;;;14.73;13.20;;;;;;;22.83;35.25;96056.00;4986945;28;20620;-69
2023/06/18 06:38:49;;;;;;;12.63;10.70;;;;;;;22.03;36.50;96068.22;4989087;28;20428;-68
2023/06/18 06:41:14;;;;;;;22.40;12.57;;;;;;;22.53;35.81;96062.53;4988384;28;20205;-70
2023/06/18 06:43:40;;;;;;;12.97;11.17;;;;;;;21.75;35.89;96068.16;4989408;28;20180;-68
2023/06/18 06:46:05;;;;;;;14.93;10.80;;;;;;;21.40;36.59;96062.63;4989409;28;20247;-70
2023/06/18 06:48:31;;;;;;;21.63;11.07;;;;;;;21.73;35.99;96064.81;4988677;28;20183;-69
2023/06/18 06:50:56;;;;;;;19.37;11.70;;;;;;;22.26;35.52;96059.88;4989465;28;20215;-69
2023/06/18 06:53:21;;;;;;;17.37;11.53;;;;;;;22.66;36.21;96058.69;4988745;28;20200;-69
2023/06/18 06:55:48;;;;;;;19.13;11.97;;;;;;;22.31;37.46;96058.44;4989926;28;20184;-69
2023/06/18 06:58:13;;;;;;;16.10;11.60;;;;;;;23.19;37.34;96050.69;4989863;28;20555;-68
2023/06/18 07:00:39;;;;;;;17.30;12.70;;;;;;;23.58;34.73;96054.88;4989902;28;20538;-70
2023/06/18 07:03:05;;;;;;;17.77;13.60;;;;;;;23.93;35.42;96053.09;4990191;28;20678;-70
2023/06/18 07:05:30;;;;;;;14.97;13.13;;;;;;;23.40;37.31;96058.41;4989317;28;20199;-70
2023/06/18 07:07:56;;;;;;;14.47;12.90;;;;;;;22.63;38.46;96054.47;4989546;28;20223;-70
2023/06/18 07:10:21;;;;;;;14.33;12.80;;;;;;;22.58;37.92;96054.06;4990038;28;20184;-69
2023/06/18 07:12:46;;;;;;;12.77;11.67;;;;;;;22.60;38.01;96050.25;4989942;28;20224;-70
2023/06/18 07:15:12;;;;;;;13.27;11.90;;;;;;;23.28;36.71;96046.25;4989344;28;20188;-70
2023/06/18 07:17:37;;;;;;;12.67;11.47;;;;;;;23.15;37.09;96044.00;4989063;28;20772;-69
2023/06/18 07:20:03;;;;;;;12.73;11.40;;;;;;;23.44;36.35;96062.47;4989350;28;20177;-69
2023/06/18 07:22:28;;;;;;;13.87;12.50;;;;;;;22.46;38.46;96055.28;4988778;28;20209;-70
2023/06/18 07:24:56;;;;;;;14.07;12.10;;;;;;;22.96;37.22;96050.31;4979027;28;20177;-70
2023/06/18 07:27:22;;;;;;;10.90;10.00;;;;;;;22.79;36.39;96054.63;4978599;28;20178;-70
2023/06/18 07:29:47;;;;;;;13.40;11.50;;;;;;;23.03;36.35;96048.72;4983787;28;20502;-71
2023/06/18 07:32:13;;;;;;;13.37;11.87;;;;;;;22.66;35.54;96064.03;4975693;28;20617;-70
2023/06/18 07:34:38;;;;;;;15.63;11.10;;;;;;;22.84;34.32;96059.53;4981755;28;20227;-69
2023/06/18 07:37:03;;;;;;;12.50;11.23;;;;;;;23.36;34.06;96064.22;4994511;28;20252;-72
2023/06/18 07:39:29;;;;;;;12.60;11.40;;;;;;;22.97;34.88;96051.97;4988898;28;20601;-71
2023/06/18 07:41:54;;;;;;;13.00;11.27;;;;;;;22.95;35.04;96055.81;4988844;28;20200;-69
2023/06/18 07:44:19;;;;;;;12.20;10.90;;;;;;;23.16;34.38;96053.69;4989229;28;20268;-70
2023/06/18 07:46:45;;;;;;;13.60;11.60;;;;;;;23.36;34.83;96053.50;4989512;28;20255;-68
2023/06/18 07:49:10;;;;;;;11.33;10.27;;;;;;;23.37;34.29;96053.38;4988924;28;20534;-72
2023/06/18 07:51:36;;;;;;;13.23;11.93;;;;;;;23.96;33.82;96048.28;4987596;28;20197;-72
2023/06/18 07:54:01;;;;;;;12.17;10.20;;;;;;;24.02;33.61;96052.16;4988176;28;20280;-69
2023/06/18 07:56:27;;;;;;;13.90;11.37;;;;;;;24.15;33.42;96046.38;4988327;28;20441;-71
2023/06/18 07:58:52;;;;;;;12.80;11.60;;;;;;;23.67;34.27;96053.94;4988253;28;20176;-70
2023/06/18 08:01:18;;;;;;;13.43;12.00;;;;;;;23.84;34.52;96049.56;4988213;28;20239;-68
2023/06/18 08:03:44;;;;;;;23.17;12.47;;;;;;;24.24;33.66;96051.59;4987280;28;20169;-70
2023/06/18 08:06:09;;;;;;;11.60;10.60;;;;;;;24.28;32.96;96039.56;4988284;28;20179;-70
2023/06/18 08:08:35;;;;;;;16.27;11.60;;;;;;;24.60;32.29;96038.03;4988383;28;20173;-69
2023/06/18 08:11:00;;;;;;;19.33;12.10;;;;;;;24.88;32.89;96037.75;4987052;28;20200;-70
2023/06/18 08:13:26;;;;;;;12.30;11.27;;;;;;;25.05;31.37;96042.13;4987477;28;20172;-69
2023/06/18 08:15:51;;;;;;;15.23;11.63;;;;;;;24.94;31.96;96042.44;4987222;28;20239;-71
2023/06/18 08:18:16;;;;;;;13.03;10.70;;;;;;;24.97;32.33;96035.91;4983757;28;20182;-73
2023/06/18 08:20:42;;;;;;;12.40;11.20;;;;;;;25.12;32.04;96040.47;4987642;28;20208;-72
2023/06/18 08:23:07;;;;;;;13.43;12.03;;;;;;;25.33;32.73;96036.50;4986179;28;20993;-70
2023/06/18 08:25:32;;;;;;;13.60;12.30;;;;;;;24.78;32.58;96045.09;4985862;28;20177;-71
2023/06/18 08:27:58;;;;;;;14.33;11.70;;;;;;;25.32;32.09;96045.53;4985557;28;20907;-70
2023/06/18 08:30:24;;;;;;;14.20;11.70;;;;;;;25.44;31.50;96037.97;4986397;28;20177;-70
2023/06/18 08:32:50;;;;;;;16.13;11.50;;;;;;;24.77;31.29;96046.13;4982382;28;20272;-70
2023/06/18 08:35:15;;;;;;;19.60;10.40;;;;;;;25.56;30.59;96042.03;4976409;28;20192;-71
2023/06/18 08:37:40;;;;;;;25.43;10.90;;;;;;;25.63;30.27;96039.47;4984010;28;20191;-71
2023/06/18 08:40:07;;;;;;;10.10;9.30;;;;;;;25.40;29.82;96033.97;4983258;28;20662;-70
2023/06/18 08:42:33;;;;;;;11.00;9.90;;;;;;;25.64;28.88;96033.09;4983901;28;20215;-71
2023/06/18 08:44:58;;;;;;;16.43;10.57;;;;;;;25.52;29.84;96036.13;4985986;28;20440;-70
2023/06/18 08:47:27;;;;;;;11.87;10.73;;;;;;;25.79;29.53;96036.75;4986454;28;20184;-70
2023/06/18 08:49:57;;;;;;;14.43;9.80;;;;;;;26.03;28.35;96033.22;4987005;28;20234;-71
2023/06/18 08:52:23;;;;;;;11.87;9.30;;;;;;;26.67;28.05;96035.88;4983914;28;20456;-72
2023/06/18 08:54:54;;;;;;;10.80;9.70;;;;;;;26.42;27.84;96036.97;4986064;28;20435;-71
2023/06/18 08:57:41;;;;;;;15.03;10.33;;;;;;;25.96;29.08;96041.16;4969719;28;20401;-72
2023/06/18 09:00:08;;;;;;;10.83;9.73;;;;;;;26.11;28.18;96037.75;4986407;28;20404;-70
2023/06/18 09:02:34;;;;;;;10.00;8.60;;;;;;;25.89;27.00;96034.78;4983834;28;20459;-73
2023/06/18 09:05:02;;;;;;;12.40;10.47;;;;;;;26.54;26.75;96027.50;4985331;28;21152;-72
2023/06/18 09:07:27;;;;;;;13.33;9.33;;;;;;;26.43;27.37;96025.16;4985441;28;20180;-74
2023/06/18 09:09:53;;;;;;;17.17;9.73;;;;;;;26.54;27.49;96030.19;4979395;28;20478;-70
2023/06/18 09:12:18;;;;;;;13.83;9.30;;;;;;;26.46;27.36;96031.06;4983399;28;20188;-72
2023/06/18 09:14:46;;;;;;;9.10;8.20;;;;;;;25.60;27.27;96040.66;4983309;28;20183;-71
2023/06/18 09:17:11;;;;;;;10.40;9.17;;;;;;;25.44;27.45;96032.59;4981987;28;20218;-73
2023/06/18 09:19:37;;;;;;;10.23;9.23;;;;;;;26.32;26.50;96027.25;4981450;28;20440;-72
2023/06/18 09:22:14;;;;;;;12.07;8.83;;;;;;;26.18;26.52;96034.19;4981488;28;20311;-75
2023/06/18 09:24:39;;;;;;;9.20;8.30;;;;;;;25.69;27.56;96031.56;4981579;28;20181;-72
2023/06/18 09:27:06;;;;;;;8.50;7.70;;;;;;;25.98;27.19;96023.00;4983309;28;20440;-72
2023/06/18 09:29:36;;;;;;;10.67;7.87;;;;;;;26.33;25.79;96028.06;4983021;28;20204;-70
2023/06/18 09:32:10;;;;;;;9.40;8.40;;;;;;;26.67;25.01;96019.72;4978185;28;20468;-73
2023/06/18 09:34:36;;;;;;;8.50;7.70;;;;;;;26.69;25.86;96014.97;4983580;28;20434;-70
2023/06/18 09:37:03;;;;;;;9.10;8.30;;;;;;;26.70;25.16;96010.44;4982013;28;20517;-73
2023/06/18 09:39:29;;;;;;;10.30;8.70;;;;;;;26.68;25.02;96018.69;4985051;28;20868;-72
2023/06/18 09:41:55;;;;;;;9.10;8.17;;;;;;;26.81;24.32;96012.72;4985147;28;20478;-71
2023/06/18 09:44:22;;;;;;;8.97;8.13;;;;;;;26.30;25.56;96014.97;4984978;28;20177;-71
2023/06/18 09:46:56;;;;;;;11.17;8.73;;;;;;;25.97;26.60;96013.25;4984720;28;20431;-72
2023/06/18 09:49:23;;;;;;;9.27;8.30;;;;;;;26.31;26.16;96012.09;4984284;28;20478;-73
2023/06/18 09:51:49;;;;;;;10.10;8.93;;;;;;;26.37;25.98;96000.66;4984560;28;20459;-74
2023/06/18 09:54:15;;;;;;;9.80;9.00;;;;;;;26.04;26.39;96017.94;4981214;28;20944;-73
2023/06/18 09:56:57;;;;;;;8.97;8.17;;;;;;;25.96;26.78;96013.41;4979391;28;20427;-71
2023/06/18 09:59:23;;;;;;;9.10;8.30;;;;;;;25.92;27.00;96020.16;4987078;28;20210;-71
2023/06/18 10:01:48;;;;;;;9.57;8.67;;;;;;;26.28;26.71;96007.06;4984765;28;21027;-71
2023/06/18 10:04:14;;;;;;;9.90;9.00;;;;;;;26.27;26.41;96005.41;4983343;28;20431;-72
2023/06/18 10:06:41;;;;;;;8.70;7.90;;;;;;;26.71;25.81;96009.41;4984460;28;20654;-73
2023/06/18 10:09:08;;;;;;;10.13;8.17;;;;;;;26.60;25.46;96005.28;4982721;28;20263;-73
2023/06/18 10:11:35;;;;;;;8.77;7.97;;;;;;;26.98;25.29;95989.22;4984359;28;20455;-72
2023/06/18 10:14:06;;;;;;;9.43;8.17;;;;;;;26.86;26.18;95993.34;4984653;28;20443;-72
2023/06/18 10:16:34;;;;;;;9.63;8.67;;;;;;;26.80;25.21;95990.34;4987373;28;20427;-71
2023/06/18 10:19:06;;;;;;;13.50;8.57;;;;;;;26.67;25.62;96000.88;4988634;28;20431;-72
2023/06/18 10:21:36;;;;;;;10.87;9.80;;;;;;;26.79;25.36;95999.44;4986619;28;20558;-71
2023/06/18 10:24:24;;;;;;;9.57;8.57;;;;;;;26.63;25.75;95998.72;4987797;28;20431;-74
2023/06/18 10:26:51;;;;;;;19.37;8.47;;;;;;;26.51;25.64;95990.16;4988268;28;20427;-72
2023/06/18 10:29:16;;;;;;;18.73;9.77;;;;;;;26.55;26.69;95984.28;4987024;28;20829;-73
2023/06/18 10:31:42;;;;;;;13.40;9.87;;;;;;;26.62;26.40;95987.09;4985439;28;20455;-72
2023/06/18 10:34:08;;;;;;;10.17;9.27;;;;;;;26.85;25.10;95986.28;4984757;28;20184;-71
2023/06/18 10:36:34;;;;;;;9.43;8.43;;;;;;;26.82;25.38;95982.09;4985739;28;20322;-72
2023/06/18 10:39:01;;;;;;;9.07;8.27;;;;;;;26.86;25.17;95985.25;4987510;28;20276;-71
2023/06/18 10:41:27;;;;;;;8.97;8.20;;;;;;;26.99;24.89;95978.25;4988689;28;21163;-72
2023/06/18 10:43:54;;;;;;;10.20;8.90;;;;;;;26.76;24.50;95972.03;4988199;28;20443;-72
2023/06/18 10:46:21;;;;;;;9.20;8.30;;;;;;;26.97;24.53;95979.47;4988243;28;20184;-72
2023/06/18 10:49:16;;;;;;;11.43;8.77;;;;;;;27.07;24.86;95965.75;4989131;28;20550;-74
2023/06/18 10:52:14;;;;;;;16.93;9.20;;;;;;;27.35;24.19;95964.19;4987702;28;20489;-73
2023/06/18 10:54:40;;;;;;;9.27;7.90;;;;;;;27.65;23.85;95965.06;4988981;28;20501;-72
2023/06/18 10:57:08;;;;;;;10.77;8.03;;;;;;;27.69;24.05;95962.03;4988338;28;20510;-70
2023/06/18 10:59:40;;;;;;;9.17;8.47;;;;;;;27.99;23.16;95962.88;4987931;28;20446;-73
2023/06/18 11:02:06;;;;;;;11.10;8.30;;;;;;;27.71;24.91;95957.25;4988873;28;20561;-72
2023/06/18 11:04:33;;;;;;;9.87;7.67;;;;;;;27.84;23.61;95955.63;4986328;28;21023;-73
2023/06/18 11:07:11;;;;;;;8.73;7.83;;;;;;;27.88;23.63;95953.41;4987674;28;20191;-72
2023/06/18 11:09:49;;;;;;;9.90;8.40;;;;;;;28.11;23.03;95952.47;4985558;28;20470;-73
2023/06/18 11:12:19;;;;;;;12.40;8.40;;;;;;;28.30;23.44;95951.91;4989028;28;20446;-70
2023/06/18 11:15:03;;;;;;;9.53;8.60;;;;;;;28.41;22.97;95943.28;4988100;28;20586;-72
2023/06/18 11:17:29;;;;;;;9.17;8.27;;;;;;;28.29;22.97;95947.50;4987870;28;20441;-73
2023/06/18 11:19:55;;;;;;;8.77;7.97;;;;;;;27.83;23.06;95943.19;4987408;28;20439;-73
2023/06/18 11:22:20;;;;;;;9.67;8.73;;;;;;;27.64;23.81;95947.25;4986666;28;20212;-71